sensor_id;sensor_type;location;lat;lon;timestamp;temperature;humidity
23685;DHT22;12020;51.384;6.908;2022-11-20T00:00:51;1.10;99.90
23685;DHT22;12020;51.384;6.908;2022-11-20T00:03:17;1.00;99.90
23685;DHT22;12020;51.384;6.908;2022-11-20T00:05:43;1.00;99.90
23685;DHT22;12020;51.384;6.908;2022-11-20T00:08:09;1.10;99.90
23685;DHT22;12020;51.384;6.908;2022-11-20T00:10:39;1.10;99.90
23685;DHT22;12020;51.384;6.908;2022-11-20T00:13:05;1.10;99.90
23685;DHT22;12020;51.384;6.908;2022-11-20T00:15:32;1.10;99.90
23685;DHT22;12020;51.384;6.908;2022-11-20T00:17:59;1.20;99.90
23685;DHT22;12020;51.384;6.908;2022-11-20T00:20:26;1.20;99.90
23685;DHT22;12020;51.384;6.908;2022-11-20T00:22:51;1.20;99.90
23685;DHT22;12020;51.384;6.908;2022-11-20T00:25:18;1.30;99.90
23685;DHT22;12020;51.384;6.908;2022-11-20T00:27:43;1.30;99.90
23685;DHT22;12020;51.384;6.908;2022-11-20T00:30:12;1.30;99.90
23685;DHT22;12020;51.384;6.908;2022-11-20T00:32:38;1.30;99.90
23685;DHT22;12020;51.384;6.908;2022-11-20T00:35:04;1.40;99.90
23685;DHT22;12020;51.384;6.908;2022-11-20T00:37:30;1.40;99.90
23685;DHT22;12020;51.384;6.908;2022-11-20T00:39:56;1.40;99.90
23685;DHT22;12020;51.384;6.908;2022-11-20T00:42:21;1.40;99.90
23685;DHT22;12020;51.384;6.908;2022-11-20T00:44:47;1.40;99.90
23685;DHT22;12020;51.384;6.908;2022-11-20T00:47:13;1.40;99.90
23685;DHT22;12020;51.384;6.908;2022-11-20T00:49:44;1.40;99.90
23685;DHT22;12020;51.384;6.908;2022-11-20T00:52:10;1.50;99.90
23685;DHT22;12020;51.384;6.908;2022-11-20T00:54:36;1.50;99.90
23685;DHT22;12020;51.384;6.908;2022-11-20T00:57:01;1.50;99.90
23685;DHT22;12020;51.384;6.908;2022-11-20T00:59:27;1.50;99.90
23685;DHT22;12020;51.384;6.908;2022-11-20T01:01:53;1.60;99.90
23685;DHT22;12020;51.384;6.908;2022-11-20T01:04:20;1.60;99.90
23685;DHT22;12020;51.384;6.908;2022-11-20T01:06:46;1.60;99.90
23685;DHT22;12020;51.384;6.908;2022-11-20T01:09:13;1.60;99.90
23685;DHT22;12020;51.384;6.908;2022-11-20T01:11:42;1.70;99.90
23685;DHT22;12020;51.384;6.908;2022-11-20T01:14:13;1.80;99.90
23685;DHT22;12020;51.384;6.908;2022-11-20T01:16:42;1.70;99.90
23685;DHT22;12020;51.384;6.908;2022-11-20T01:19:12;1.70;99.90
23685;DHT22;12020;51.384;6.908;2022-11-20T01:21:40;1.70;99.90
23685;DHT22;12020;51.384;6.908;2022-11-20T01:24:07;1.70;99.90
23685;DHT22;12020;51.384;6.908;2022-11-20T01:26:35;1.60;99.90
23685;DHT22;12020;51.384;6.908;2022-11-20T01:29:01;1.70;99.90
23685;DHT22;12020;51.384;6.908;2022-11-20T01:31:32;1.80;99.90
23685;DHT22;12020;51.384;6.908;2022-11-20T01:34:06;1.80;99.90
23685;DHT22;12020;51.384;6.908;2022-11-20T01:36:33;1.80;99.90
23685;DHT22;12020;51.384;6.908;2022-11-20T01:39:04;1.80;99.90
23685;DHT22;12020;51.384;6.908;2022-11-20T01:41:31;1.80;99.90
23685;DHT22;12020;51.384;6.908;2022-11-20T01:44:19;1.90;99.90
23685;DHT22;12020;51.384;6.908;2022-11-20T01:46:58;1.90;99.90
23685;DHT22;12020;51.384;6.908;2022-11-20T01:49:34;1.90;99.90
23685;DHT22;12020;51.384;6.908;2022-11-20T01:52:07;1.90;99.90
23685;DHT22;12020;51.384;6.908;2022-11-20T01:54:39;1.90;99.90
23685;DHT22;12020;51.384;6.908;2022-11-20T01:57:09;1.80;99.90
23685;DHT22;12020;51.384;6.908;2022-11-20T01:59:41;1.90;99.90
23685;DHT22;12020;51.384;6.908;2022-11-20T02:02:09;1.80;99.90
23685;DHT22;12020;51.384;6.908;2022-11-20T02:04:35;1.80;99.90
23685;DHT22;12020;51.384;6.908;2022-11-20T02:07:03;1.90;99.90
23685;DHT22;12020;51.384;6.908;2022-11-20T02:09:30;1.90;99.90
23685;DHT22;12020;51.384;6.908;2022-11-20T02:11:56;1.90;99.90
23685;DHT22;12020;51.384;6.908;2022-11-20T02:14:23;2.00;99.90
23685;DHT22;12020;51.384;6.908;2022-11-20T02:16:50;2.00;99.90
23685;DHT22;12020;51.384;6.908;2022-11-20T02:19:26;2.00;99.90
23685;DHT22;12020;51.384;6.908;2022-11-20T02:22:02;2.10;99.90
23685;DHT22;12020;51.384;6.908;2022-11-20T02:24:31;2.10;99.90
23685;DHT22;12020;51.384;6.908;2022-11-20T02:27:30;2.10;99.90
23685;DHT22;12020;51.384;6.908;2022-11-20T02:30:01;2.10;99.90
23685;DHT22;12020;51.384;6.908;2022-11-20T02:32:30;2.10;99.90
23685;DHT22;12020;51.384;6.908;2022-11-20T02:34:56;2.10;99.90
23685;DHT22;12020;51.384;6.908;2022-11-20T02:37:32;2.00;99.90
23685;DHT22;12020;51.384;6.908;2022-11-20T02:40:00;2.00;99.90
23685;DHT22;12020;51.384;6.908;2022-11-20T02:42:26;1.90;99.90
23685;DHT22;12020;51.384;6.908;2022-11-20T02:44:52;2.10;99.90
23685;DHT22;12020;51.384;6.908;2022-11-20T02:47:17;2.10;99.90
23685;DHT22;12020;51.384;6.908;2022-11-20T02:49:44;2.00;99.90
23685;DHT22;12020;51.384;6.908;2022-11-20T02:52:09;2.00;99.90
23685;DHT22;12020;51.384;6.908;2022-11-20T02:54:43;2.10;99.90
23685;DHT22;12020;51.384;6.908;2022-11-20T02:57:09;2.10;99.90
23685;DHT22;12020;51.384;6.908;2022-11-20T02:59:35;2.10;99.90
23685;DHT22;12020;51.384;6.908;2022-11-20T03:02:01;2.10;99.90
23685;DHT22;12020;51.384;6.908;2022-11-20T03:04:27;2.20;99.90
23685;DHT22;12020;51.384;6.908;2022-11-20T03:06:53;2.30;99.90
23685;DHT22;12020;51.384;6.908;2022-11-20T03:09:20;2.20;99.90
23685;DHT22;12020;51.384;6.908;2022-11-20T03:11:46;2.20;99.90
23685;DHT22;12020;51.384;6.908;2022-11-20T03:14:13;2.30;99.90
23685;DHT22;12020;51.384;6.908;2022-11-20T03:16:39;2.30;99.90
23685;DHT22;12020;51.384;6.908;2022-11-20T03:19:05;2.30;99.90
23685;DHT22;12020;51.384;6.908;2022-11-20T03:21:33;2.40;99.90
23685;DHT22;12020;51.384;6.908;2022-11-20T03:23:59;2.40;99.90
23685;DHT22;12020;51.384;6.908;2022-11-20T03:26:26;2.40;99.90
23685;DHT22;12020;51.384;6.908;2022-11-20T03:29:00;2.40;99.90
23685;DHT22;12020;51.384;6.908;2022-11-20T03:31:36;2.50;99.90
23685;DHT22;12020;51.384;6.908;2022-11-20T03:34:17;2.30;99.90
23685;DHT22;12020;51.384;6.908;2022-11-20T03:36:47;2.30;99.90
23685;DHT22;12020;51.384;6.908;2022-11-20T03:39:13;2.50;99.90
23685;DHT22;12020;51.384;6.908;2022-11-20T03:41:41;2.50;99.90
23685;DHT22;12020;51.384;6.908;2022-11-20T03:44:09;2.50;99.90
23685;DHT22;12020;51.384;6.908;2022-11-20T03:46:35;2.50;99.90
23685;DHT22;12020;51.384;6.908;2022-11-20T03:49:01;2.60;99.90
23685;DHT22;12020;51.384;6.908;2022-11-20T03:51:29;2.60;99.90
23685;DHT22;12020;51.384;6.908;2022-11-20T03:53:57;2.60;99.90
23685;DHT22;12020;51.384;6.908;2022-11-20T03:56:28;2.70;99.90
23685;DHT22;12020;51.384;6.908;2022-11-20T03:58:55;2.60;99.90
23685;DHT22;12020;51.384;6.908;2022-11-20T04:01:24;2.60;99.90
23685;DHT22;12020;51.384;6.908;2022-11-20T04:03:52;2.70;99.90
23685;DHT22;12020;51.384;6.908;2022-11-20T04:06:28;2.70;99.90
23685;DHT22;12020;51.384;6.908;2022-11-20T04:08:55;2.70;99.90
23685;DHT22;12020;51.384;6.908;2022-11-20T04:11:25;2.70;99.90
23685;DHT22;12020;51.384;6.908;2022-11-20T04:13:54;2.70;99.90
23685;DHT22;12020;51.384;6.908;2022-11-20T04:16:23;2.70;99.90
23685;DHT22;12020;51.384;6.908;2022-11-20T04:18:55;2.70;99.90
23685;DHT22;12020;51.384;6.908;2022-11-20T04:21:21;2.70;99.90
23685;DHT22;12020;51.384;6.908;2022-11-20T04:23:47;2.70;99.90
23685;DHT22;12020;51.384;6.908;2022-11-20T04:26:13;2.80;99.90
23685;DHT22;12020;51.384;6.908;2022-11-20T04:28:40;2.80;99.90
23685;DHT22;12020;51.384;6.908;2022-11-20T04:31:08;2.80;99.90
23685;DHT22;12020;51.384;6.908;2022-11-20T04:33:34;2.90;99.90
23685;DHT22;12020;51.384;6.908;2022-11-20T04:36:07;2.90;99.90
23685;DHT22;12020;51.384;6.908;2022-11-20T04:38:33;2.90;99.90
23685;DHT22;12020;51.384;6.908;2022-11-20T04:41:02;2.90;99.90
23685;DHT22;12020;51.384;6.908;2022-11-20T04:43:29;2.90;99.90
23685;DHT22;12020;51.384;6.908;2022-11-20T04:45:55;3.00;99.90
23685;DHT22;12020;51.384;6.908;2022-11-20T04:48:22;2.90;99.90
23685;DHT22;12020;51.384;6.908;2022-11-20T04:50:48;3.00;99.90
23685;DHT22;12020;51.384;6.908;2022-11-20T04:53:14;3.00;99.90
23685;DHT22;12020;51.384;6.908;2022-11-20T04:55:40;3.00;99.90
23685;DHT22;12020;51.384;6.908;2022-11-20T04:58:06;2.90;99.90
23685;DHT22;12020;51.384;6.908;2022-11-20T05:00:32;2.80;99.90
23685;DHT22;12020;51.384;6.908;2022-11-20T05:02:57;2.90;99.90
23685;DHT22;12020;51.384;6.908;2022-11-20T05:05:24;3.00;99.90
23685;DHT22;12020;51.384;6.908;2022-11-20T05:07:50;3.00;99.90
23685;DHT22;12020;51.384;6.908;2022-11-20T05:10:16;3.00;99.90
23685;DHT22;12020;51.384;6.908;2022-11-20T05:12:42;3.00;99.90
23685;DHT22;12020;51.384;6.908;2022-11-20T05:15:08;3.10;99.90
23685;DHT22;12020;51.384;6.908;2022-11-20T05:17:34;3.00;99.90
23685;DHT22;12020;51.384;6.908;2022-11-20T05:20:00;3.00;99.90
23685;DHT22;12020;51.384;6.908;2022-11-20T05:22:27;2.90;99.90
23685;DHT22;12020;51.384;6.908;2022-11-20T05:24:52;3.00;99.90
23685;DHT22;12020;51.384;6.908;2022-11-20T05:27:18;3.00;99.90
23685;DHT22;12020;51.384;6.908;2022-11-20T05:29:45;3.00;99.90
23685;DHT22;12020;51.384;6.908;2022-11-20T05:32:10;3.10;99.90
23685;DHT22;12020;51.384;6.908;2022-11-20T05:34:36;3.10;99.90
23685;DHT22;12020;51.384;6.908;2022-11-20T05:37:03;3.10;99.90
23685;DHT22;12020;51.384;6.908;2022-11-20T05:39:28;3.10;99.90
23685;DHT22;12020;51.384;6.908;2022-11-20T05:41:56;3.10;99.90
23685;DHT22;12020;51.384;6.908;2022-11-20T05:44:39;3.20;99.90
23685;DHT22;12020;51.384;6.908;2022-11-20T05:47:06;3.20;99.90
23685;DHT22;12020;51.384;6.908;2022-11-20T05:49:32;3.20;99.90
23685;DHT22;12020;51.384;6.908;2022-11-20T05:51:57;3.10;99.90
23685;DHT22;12020;51.384;6.908;2022-11-20T05:54:23;3.20;99.90
23685;DHT22;12020;51.384;6.908;2022-11-20T05:56:48;3.10;99.90
23685;DHT22;12020;51.384;6.908;2022-11-20T05:59:14;3.10;99.90
23685;DHT22;12020;51.384;6.908;2022-11-20T06:01:40;3.10;99.90
23685;DHT22;12020;51.384;6.908;2022-11-20T06:04:06;3.10;99.90
23685;DHT22;12020;51.384;6.908;2022-11-20T06:06:31;3.10;99.90
23685;DHT22;12020;51.384;6.908;2022-11-20T06:08:57;3.20;99.90
23685;DHT22;12020;51.384;6.908;2022-11-20T06:11:26;3.20;99.90
23685;DHT22;12020;51.384;6.908;2022-11-20T06:13:52;3.20;99.90
23685;DHT22;12020;51.384;6.908;2022-11-20T06:16:26;3.20;99.90
23685;DHT22;12020;51.384;6.908;2022-11-20T06:18:51;3.20;99.90
23685;DHT22;12020;51.384;6.908;2022-11-20T06:21:20;3.20;99.90
23685;DHT22;12020;51.384;6.908;2022-11-20T06:23:47;3.20;99.90
23685;DHT22;12020;51.384;6.908;2022-11-20T06:26:14;3.20;99.90
23685;DHT22;12020;51.384;6.908;2022-11-20T06:28:40;3.10;99.90
23685;DHT22;12020;51.384;6.908;2022-11-20T06:31:07;3.20;99.90
23685;DHT22;12020;51.384;6.908;2022-11-20T06:33:33;3.10;99.90
23685;DHT22;12020;51.384;6.908;2022-11-20T06:35:59;3.10;99.90
23685;DHT22;12020;51.384;6.908;2022-11-20T06:38:26;3.20;99.90
23685;DHT22;12020;51.384;6.908;2022-11-20T06:40:52;3.20;99.90
23685;DHT22;12020;51.384;6.908;2022-11-20T06:43:18;3.20;99.90
23685;DHT22;12020;51.384;6.908;2022-11-20T06:45:43;3.20;99.90
23685;DHT22;12020;51.384;6.908;2022-11-20T06:48:09;3.20;99.90
23685;DHT22;12020;51.384;6.908;2022-11-20T06:50:37;3.20;99.90
23685;DHT22;12020;51.384;6.908;2022-11-20T06:53:04;3.20;99.90
23685;DHT22;12020;51.384;6.908;2022-11-20T06:55:30;3.20;99.90
23685;DHT22;12020;51.384;6.908;2022-11-20T06:57:55;3.20;99.90
23685;DHT22;12020;51.384;6.908;2022-11-20T07:02:50;3.20;99.90
23685;DHT22;12020;51.384;6.908;2022-11-20T07:05:16;3.30;99.90
23685;DHT22;12020;51.384;6.908;2022-11-20T07:07:42;3.30;99.90
23685;DHT22;12020;51.384;6.908;2022-11-20T07:10:07;3.30;99.90
23685;DHT22;12020;51.384;6.908;2022-11-20T07:12:33;3.30;99.90
23685;DHT22;12020;51.384;6.908;2022-11-20T07:15:01;3.30;99.90
23685;DHT22;12020;51.384;6.908;2022-11-20T07:17:32;3.30;99.90
23685;DHT22;12020;51.384;6.908;2022-11-20T07:19:58;3.30;99.90
23685;DHT22;12020;51.384;6.908;2022-11-20T07:22:25;3.30;99.90
23685;DHT22;12020;51.384;6.908;2022-11-20T07:24:54;3.30;99.90
23685;DHT22;12020;51.384;6.908;2022-11-20T07:27:20;3.30;99.90
23685;DHT22;12020;51.384;6.908;2022-11-20T07:29:45;3.30;99.90
23685;DHT22;12020;51.384;6.908;2022-11-20T07:32:11;3.40;99.90
23685;DHT22;12020;51.384;6.908;2022-11-20T07:34:36;3.40;99.90
23685;DHT22;12020;51.384;6.908;2022-11-20T07:37:02;3.40;99.90
23685;DHT22;12020;51.384;6.908;2022-11-20T07:39:28;3.40;99.90
23685;DHT22;12020;51.384;6.908;2022-11-20T07:41:53;3.40;99.90
23685;DHT22;12020;51.384;6.908;2022-11-20T07:44:19;3.40;99.90
23685;DHT22;12020;51.384;6.908;2022-11-20T07:46:45;3.40;99.90
23685;DHT22;12020;51.384;6.908;2022-11-20T07:49:11;3.40;99.90
23685;DHT22;12020;51.384;6.908;2022-11-20T07:51:37;3.40;99.90
23685;DHT22;12020;51.384;6.908;2022-11-20T07:54:03;3.50;99.90
23685;DHT22;12020;51.384;6.908;2022-11-20T07:56:29;3.50;99.90
23685;DHT22;12020;51.384;6.908;2022-11-20T07:58:55;3.50;99.90
23685;DHT22;12020;51.384;6.908;2022-11-20T08:01:21;3.50;99.90
23685;DHT22;12020;51.384;6.908;2022-11-20T08:03:47;3.40;99.90
23685;DHT22;12020;51.384;6.908;2022-11-20T08:06:12;3.40;99.90
23685;DHT22;12020;51.384;6.908;2022-11-20T08:08:40;3.40;99.90
23685;DHT22;12020;51.384;6.908;2022-11-20T08:11:05;3.40;99.90
23685;DHT22;12020;51.384;6.908;2022-11-20T08:13:50;3.30;99.90
23685;DHT22;12020;51.384;6.908;2022-11-20T08:16:34;3.40;99.90
23685;DHT22;12020;51.384;6.908;2022-11-20T08:19:00;3.40;99.90
23685;DHT22;12020;51.384;6.908;2022-11-20T08:21:25;3.40;99.90
23685;DHT22;12020;51.384;6.908;2022-11-20T08:23:51;3.40;99.90
23685;DHT22;12020;51.384;6.908;2022-11-20T08:26:17;3.40;99.90
23685;DHT22;12020;51.384;6.908;2022-11-20T08:28:43;3.40;99.90
23685;DHT22;12020;51.384;6.908;2022-11-20T08:31:09;3.50;99.90
23685;DHT22;12020;51.384;6.908;2022-11-20T08:33:35;3.50;99.90
23685;DHT22;12020;51.384;6.908;2022-11-20T08:36:03;3.60;99.90
23685;DHT22;12020;51.384;6.908;2022-11-20T08:38:29;3.50;99.90
23685;DHT22;12020;51.384;6.908;2022-11-20T08:41:01;3.50;99.90
23685;DHT22;12020;51.384;6.908;2022-11-20T08:43:45;3.60;99.90
23685;DHT22;12020;51.384;6.908;2022-11-20T08:46:11;3.60;99.90
23685;DHT22;12020;51.384;6.908;2022-11-20T08:48:37;3.60;99.90
23685;DHT22;12020;51.384;6.908;2022-11-20T08:51:02;3.60;99.90
23685;DHT22;12020;51.384;6.908;2022-11-20T08:53:28;3.60;99.90
23685;DHT22;12020;51.384;6.908;2022-11-20T08:55:54;3.60;99.90
23685;DHT22;12020;51.384;6.908;2022-11-20T08:58:22;3.70;99.90
23685;DHT22;12020;51.384;6.908;2022-11-20T09:00:48;3.70;99.90
23685;DHT22;12020;51.384;6.908;2022-11-20T09:03:16;3.70;99.90
23685;DHT22;12020;51.384;6.908;2022-11-20T09:05:42;3.80;99.90
23685;DHT22;12020;51.384;6.908;2022-11-20T09:08:08;3.90;99.90
23685;DHT22;12020;51.384;6.908;2022-11-20T09:10:34;4.00;99.90
23685;DHT22;12020;51.384;6.908;2022-11-20T09:12:59;4.00;99.90
23685;DHT22;12020;51.384;6.908;2022-11-20T09:15:25;4.00;99.90
23685;DHT22;12020;51.384;6.908;2022-11-20T09:17:54;4.00;99.90
23685;DHT22;12020;51.384;6.908;2022-11-20T09:20:20;4.10;99.90
23685;DHT22;12020;51.384;6.908;2022-11-20T09:22:46;4.10;99.90
23685;DHT22;12020;51.384;6.908;2022-11-20T09:25:12;4.30;99.90
23685;DHT22;12020;51.384;6.908;2022-11-20T09:27:38;4.50;99.90
23685;DHT22;12020;51.384;6.908;2022-11-20T09:30:04;4.50;99.90
23685;DHT22;12020;51.384;6.908;2022-11-20T09:32:30;4.50;99.90
23685;DHT22;12020;51.384;6.908;2022-11-20T09:34:56;4.50;99.90
23685;DHT22;12020;51.384;6.908;2022-11-20T09:37:21;4.50;99.90
23685;DHT22;12020;51.384;6.908;2022-11-20T09:39:47;4.50;99.90
23685;DHT22;12020;51.384;6.908;2022-11-20T09:52:35;4.50;99.90
23685;DHT22;12020;51.384;6.908;2022-11-20T09:55:03;4.60;99.90
23685;DHT22;12020;51.384;6.908;2022-11-20T09:57:35;4.60;99.90
23685;DHT22;12020;51.384;6.908;2022-11-20T10:00:03;4.70;99.90
23685;DHT22;12020;51.384;6.908;2022-11-20T10:03:16;4.70;99.90
23685;DHT22;12020;51.384;6.908;2022-11-20T10:05:35;4.70;99.90
23685;DHT22;12020;51.384;6.908;2022-11-20T10:08:10;4.70;99.90
23685;DHT22;12020;51.384;6.908;2022-11-20T10:13:20;4.70;99.90
23685;DHT22;12020;51.384;6.908;2022-11-20T10:20:57;4.80;99.90
23685;DHT22;12020;51.384;6.908;2022-11-20T10:29:01;4.90;99.90
23685;DHT22;12020;51.384;6.908;2022-11-20T10:31:28;4.90;99.90
23685;DHT22;12020;51.384;6.908;2022-11-20T10:33:56;4.90;99.90
23685;DHT22;12020;51.384;6.908;2022-11-20T10:36:25;4.90;99.90
23685;DHT22;12020;51.384;6.908;2022-11-20T10:38:56;4.90;99.90
23685;DHT22;12020;51.384;6.908;2022-11-20T10:41:27;5.00;99.90
23685;DHT22;12020;51.384;6.908;2022-11-20T10:44:03;5.00;99.90
23685;DHT22;12020;51.384;6.908;2022-11-20T10:46:34;5.00;99.90
23685;DHT22;12020;51.384;6.908;2022-11-20T10:49:04;5.00;99.90
23685;DHT22;12020;51.384;6.908;2022-11-20T10:51:33;5.00;99.90
23685;DHT22;12020;51.384;6.908;2022-11-20T11:01:27;5.10;99.90
23685;DHT22;12020;51.384;6.908;2022-11-20T11:03:53;5.20;99.90
23685;DHT22;12020;51.384;6.908;2022-11-20T11:06:33;5.20;99.90
23685;DHT22;12020;51.384;6.908;2022-11-20T11:09:03;5.20;99.90
23685;DHT22;12020;51.384;6.908;2022-11-20T11:11:31;5.30;99.90
23685;DHT22;12020;51.384;6.908;2022-11-20T11:14:04;5.30;99.90
23685;DHT22;12020;51.384;6.908;2022-11-20T11:16:30;5.30;99.90
23685;DHT22;12020;51.384;6.908;2022-11-20T11:19:05;5.40;99.90
23685;DHT22;12020;51.384;6.908;2022-11-20T11:21:31;5.40;99.90
23685;DHT22;12020;51.384;6.908;2022-11-20T11:23:58;5.40;99.90
23685;DHT22;12020;51.384;6.908;2022-11-20T11:26:24;5.30;99.90
23685;DHT22;12020;51.384;6.908;2022-11-20T11:28:58;5.20;99.90
23685;DHT22;12020;51.384;6.908;2022-11-20T11:31:28;5.30;99.90
23685;DHT22;12020;51.384;6.908;2022-11-20T11:34:08;5.30;99.90
23685;DHT22;12020;51.384;6.908;2022-11-20T11:36:38;5.30;99.90
23685;DHT22;12020;51.384;6.908;2022-11-20T11:39:04;5.20;99.90
23685;DHT22;12020;51.384;6.908;2022-11-20T11:41:31;5.20;99.90
23685;DHT22;12020;51.384;6.908;2022-11-20T11:44:02;5.20;99.90
23685;DHT22;12020;51.384;6.908;2022-11-20T11:46:53;5.20;99.90
23685;DHT22;12020;51.384;6.908;2022-11-20T11:49:19;5.30;99.90
23685;DHT22;12020;51.384;6.908;2022-11-20T11:54:16;5.30;99.90
23685;DHT22;12020;51.384;6.908;2022-11-20T11:56:43;5.30;99.90
23685;DHT22;12020;51.384;6.908;2022-11-20T11:59:12;5.30;99.90
23685;DHT22;12020;51.384;6.908;2022-11-20T12:07:42;5.40;99.90
23685;DHT22;12020;51.384;6.908;2022-11-20T12:09:49;5.40;99.90
23685;DHT22;12020;51.384;6.908;2022-11-20T12:12:18;5.50;99.90
23685;DHT22;12020;51.384;6.908;2022-11-20T12:14:46;5.50;99.90
23685;DHT22;12020;51.384;6.908;2022-11-20T12:17:14;5.50;99.90
23685;DHT22;12020;51.384;6.908;2022-11-20T12:19:45;5.50;99.90
23685;DHT22;12020;51.384;6.908;2022-11-20T12:22:19;5.50;99.90
23685;DHT22;12020;51.384;6.908;2022-11-20T12:25:34;5.50;99.90
23685;DHT22;12020;51.384;6.908;2022-11-20T12:43:43;5.50;99.90
23685;DHT22;12020;51.384;6.908;2022-11-20T12:46:43;5.60;99.90
23685;DHT22;12020;51.384;6.908;2022-11-20T12:54:53;5.50;99.90
23685;DHT22;12020;51.384;6.908;2022-11-20T12:59:55;5.60;99.90
23685;DHT22;12020;51.384;6.908;2022-11-20T13:05:09;5.60;99.90
23685;DHT22;12020;51.384;6.908;2022-11-20T13:07:41;5.50;99.90
23685;DHT22;12020;51.384;6.908;2022-11-20T13:10:14;5.60;99.90
23685;DHT22;12020;51.384;6.908;2022-11-20T13:12:53;5.60;99.90
23685;DHT22;12020;51.384;6.908;2022-11-20T13:18:01;5.60;99.90
23685;DHT22;12020;51.384;6.908;2022-11-20T13:20:28;5.60;99.90
23685;DHT22;12020;51.384;6.908;2022-11-20T13:22:55;5.60;99.90
23685;DHT22;12020;51.384;6.908;2022-11-20T13:25:25;5.60;99.90
23685;DHT22;12020;51.384;6.908;2022-11-20T13:27:51;5.60;99.90
23685;DHT22;12020;51.384;6.908;2022-11-20T13:30:18;5.60;99.90
23685;DHT22;12020;51.384;6.908;2022-11-20T13:35:23;5.60;99.90
23685;DHT22;12020;51.384;6.908;2022-11-20T13:38:01;5.60;99.90
23685;DHT22;12020;51.384;6.908;2022-11-20T13:40:30;5.60;99.90
23685;DHT22;12020;51.384;6.908;2022-11-20T13:45:35;5.60;99.90
23685;DHT22;12020;51.384;6.908;2022-11-20T13:48:20;5.60;99.90
23685;DHT22;12020;51.384;6.908;2022-11-20T14:02:00;5.80;99.90
23685;DHT22;12020;51.384;6.908;2022-11-20T14:04:30;5.80;99.90
23685;DHT22;12020;51.384;6.908;2022-11-20T14:07:02;5.80;99.90
23685;DHT22;12020;51.384;6.908;2022-11-20T14:09:33;5.90;99.90
23685;DHT22;12020;51.384;6.908;2022-11-20T14:12:15;5.90;99.90
23685;DHT22;12020;51.384;6.908;2022-11-20T14:14:48;5.90;99.90
23685;DHT22;12020;51.384;6.908;2022-11-20T14:17:34;5.90;99.90
23685;DHT22;12020;51.384;6.908;2022-11-20T14:20:20;6.00;99.90
23685;DHT22;12020;51.384;6.908;2022-11-20T14:23:22;6.00;99.90
23685;DHT22;12020;51.384;6.908;2022-11-20T14:25:53;6.00;99.90
23685;DHT22;12020;51.384;6.908;2022-11-20T14:28:25;6.10;99.90
23685;DHT22;12020;51.384;6.908;2022-11-20T14:30:51;6.10;99.90
23685;DHT22;12020;51.384;6.908;2022-11-20T14:33:17;6.10;99.90
23685;DHT22;12020;51.384;6.908;2022-11-20T14:35:50;6.00;99.90
23685;DHT22;12020;51.384;6.908;2022-11-20T14:38:18;6.20;99.90
23685;DHT22;12020;51.384;6.908;2022-11-20T14:40:45;6.10;99.90
23685;DHT22;12020;51.384;6.908;2022-11-20T14:43:34;6.20;99.90
23685;DHT22;12020;51.384;6.908;2022-11-20T14:46:06;6.10;99.90
23685;DHT22;12020;51.384;6.908;2022-11-20T14:48:40;6.10;99.90
23685;DHT22;12020;51.384;6.908;2022-11-20T14:51:12;6.10;99.90
23685;DHT22;12020;51.384;6.908;2022-11-20T14:53:38;6.20;99.90
23685;DHT22;12020;51.384;6.908;2022-11-20T14:56:04;6.10;99.90
23685;DHT22;12020;51.384;6.908;2022-11-20T14:58:32;6.20;99.90
23685;DHT22;12020;51.384;6.908;2022-11-20T15:01:01;6.20;99.90
23685;DHT22;12020;51.384;6.908;2022-11-20T15:03:37;6.20;99.90
23685;DHT22;12020;51.384;6.908;2022-11-20T15:06:05;6.20;99.90
23685;DHT22;12020;51.384;6.908;2022-11-20T15:08:31;6.20;99.90
23685;DHT22;12020;51.384;6.908;2022-11-20T15:10:57;6.20;99.90
23685;DHT22;12020;51.384;6.908;2022-11-20T15:15:56;6.20;99.90
23685;DHT22;12020;51.384;6.908;2022-11-20T15:18:40;6.20;99.90
23685;DHT22;12020;51.384;6.908;2022-11-20T15:21:16;6.20;99.90
23685;DHT22;12020;51.384;6.908;2022-11-20T15:23:44;6.20;99.90
23685;DHT22;12020;51.384;6.908;2022-11-20T15:26:11;6.20;99.90
23685;DHT22;12020;51.384;6.908;2022-11-20T15:28:40;6.20;99.90
23685;DHT22;12020;51.384;6.908;2022-11-20T15:31:13;6.20;99.90
23685;DHT22;12020;51.384;6.908;2022-11-20T15:33:39;6.30;99.90
23685;DHT22;12020;51.384;6.908;2022-11-20T15:36:05;6.30;99.90
23685;DHT22;12020;51.384;6.908;2022-11-20T15:38:34;6.30;99.90
23685;DHT22;12020;51.384;6.908;2022-11-20T15:41:01;6.30;99.90
23685;DHT22;12020;51.384;6.908;2022-11-20T15:43:28;6.30;99.90
23685;DHT22;12020;51.384;6.908;2022-11-20T15:45:59;6.30;99.90
23685;DHT22;12020;51.384;6.908;2022-11-20T15:48:44;6.30;99.90
23685;DHT22;12020;51.384;6.908;2022-11-20T15:51:26;6.30;99.90
23685;DHT22;12020;51.384;6.908;2022-11-20T15:53:54;6.30;99.90
23685;DHT22;12020;51.384;6.908;2022-11-20T15:56:19;6.30;99.90
23685;DHT22;12020;51.384;6.908;2022-11-20T15:58:45;6.30;99.90
23685;DHT22;12020;51.384;6.908;2022-11-20T16:01:16;6.30;99.90
23685;DHT22;12020;51.384;6.908;2022-11-20T16:03:43;6.30;99.90
23685;DHT22;12020;51.384;6.908;2022-11-20T16:06:09;6.30;99.90
23685;DHT22;12020;51.384;6.908;2022-11-20T16:08:36;6.30;99.90
23685;DHT22;12020;51.384;6.908;2022-11-20T16:11:02;6.30;99.90
23685;DHT22;12020;51.384;6.908;2022-11-20T16:13:28;6.30;99.90
23685;DHT22;12020;51.384;6.908;2022-11-20T16:16:21;6.30;99.90
23685;DHT22;12020;51.384;6.908;2022-11-20T16:18:48;6.30;99.90
23685;DHT22;12020;51.384;6.908;2022-11-20T16:21:17;6.50;99.90
23685;DHT22;12020;51.384;6.908;2022-11-20T16:23:42;6.50;99.90
23685;DHT22;12020;51.384;6.908;2022-11-20T16:26:17;6.40;99.90
23685;DHT22;12020;51.384;6.908;2022-11-20T16:28:45;6.40;99.90
23685;DHT22;12020;51.384;6.908;2022-11-20T16:31:16;6.40;99.90
23685;DHT22;12020;51.384;6.908;2022-11-20T16:33:42;6.40;99.90
23685;DHT22;12020;51.384;6.908;2022-11-20T16:36:12;6.30;99.90
23685;DHT22;12020;51.384;6.908;2022-11-20T16:38:40;6.30;99.90
23685;DHT22;12020;51.384;6.908;2022-11-20T16:41:08;6.30;99.90
23685;DHT22;12020;51.384;6.908;2022-11-20T16:43:50;6.30;99.90
23685;DHT22;12020;51.384;6.908;2022-11-20T16:46:22;6.30;99.90
23685;DHT22;12020;51.384;6.908;2022-11-20T16:49:04;6.30;99.90
23685;DHT22;12020;51.384;6.908;2022-11-20T16:51:34;6.30;99.90
23685;DHT22;12020;51.384;6.908;2022-11-20T16:54:12;6.30;99.90
23685;DHT22;12020;51.384;6.908;2022-11-20T16:56:38;6.20;99.90
23685;DHT22;12020;51.384;6.908;2022-11-20T16:59:06;6.30;99.90
23685;DHT22;12020;51.384;6.908;2022-11-20T17:01:37;6.30;99.90
23685;DHT22;12020;51.384;6.908;2022-11-20T17:04:05;6.30;99.90
23685;DHT22;12020;51.384;6.908;2022-11-20T17:06:35;6.30;99.90
23685;DHT22;12020;51.384;6.908;2022-11-20T17:09:02;6.40;99.90
23685;DHT22;12020;51.384;6.908;2022-11-20T17:11:28;6.30;99.90
23685;DHT22;12020;51.384;6.908;2022-11-20T17:13:56;6.30;99.90
23685;DHT22;12020;51.384;6.908;2022-11-20T17:16:23;6.30;99.90
23685;DHT22;12020;51.384;6.908;2022-11-20T17:18:54;6.30;99.90
23685;DHT22;12020;51.384;6.908;2022-11-20T17:21:20;6.40;99.90
23685;DHT22;12020;51.384;6.908;2022-11-20T17:23:46;6.40;99.90
23685;DHT22;12020;51.384;6.908;2022-11-20T17:26:17;6.40;99.90